ULKOZO weather

Kozojedy Airstrip
Kozojedy, Czechia

Public forecast

Using degrees Celsius for public forecast. Weather courtesy of forecast.io.

Closest aviation weather report (METAR) to Kozojedy Airstrip

Closest report is Pardubice Airport, 23.0 nm (42.7 km) SE. Retrieved 2019/10/21 01:00 UTC (54 minutes ago):

LKPD 210100Z 00000KT 7000 NSC 08/07 Q1014 RMK WHT

Closest aviation forecast (TAF) to Kozojedy Airstrip

Closest forecast is Pardubice Airport, 23.0 nm (42.7 km) SE. Retrieved 2019-10-21 00:06 UTC (2 hours ago):

TAF LKPD 202300Z 2100/2200 VRB02KT 4000 MIFG BR NSC TEMPO 2100/2108 0600 FG VV001 BECMG 2108/2110 CAVOK BECMG 2121/2123 1500 BR